createdAt,value
2022-07-26T00:02:25.000Z,8.46
2022-07-26T00:07:24.000Z,8.54
2022-07-26T00:12:24.000Z,8.56
2022-07-26T00:17:24.000Z,8.53
2022-07-26T00:22:24.000Z,8.84
2022-07-26T00:27:24.000Z,8.84
2022-07-26T00:32:25.000Z,9.04
2022-07-26T00:37:24.000Z,8.94
2022-07-26T00:42:24.000Z,9.18
2022-07-26T00:47:24.000Z,8.95
2022-07-26T00:52:24.000Z,8.89
2022-07-26T00:57:24.000Z,9.01
2022-07-26T01:02:24.000Z,8.91
2022-07-26T01:07:24.000Z,9.21
2022-07-26T01:12:24.000Z,9.21
2022-07-26T01:17:24.000Z,9.56
2022-07-26T01:22:24.000Z,8.98
2022-07-26T01:27:24.000Z,9.4
2022-07-26T01:32:24.000Z,9.47
2022-07-26T01:47:24.000Z,8.86
2022-07-26T01:52:25.000Z,8.91
2022-07-26T01:57:25.000Z,9.16
2022-07-26T02:02:24.000Z,9.33
2022-07-26T02:07:25.000Z,9.45
2022-07-26T02:12:24.000Z,9.21
2022-07-26T02:17:25.000Z,9.23
2022-07-26T02:22:25.000Z,9.23
2022-07-26T02:27:25.000Z,9.23
2022-07-26T02:32:24.000Z,9.14
2022-07-26T02:37:24.000Z,9.5
2022-07-26T02:42:25.000Z,9.93
2022-07-26T02:47:25.000Z,10.17
2022-07-26T02:52:24.000Z,9.97
2022-07-26T02:57:25.000Z,9.74
2022-07-26T03:02:24.000Z,9.68
2022-07-26T03:07:24.000Z,9.68
2022-07-26T03:12:24.000Z,9.64
2022-07-26T03:17:24.000Z,9.46
2022-07-26T03:22:25.000Z,9.51
2022-07-26T03:27:25.000Z,9.34
2022-07-26T03:32:24.000Z,9.59
2022-07-26T03:37:24.000Z,9.86
2022-07-26T03:42:24.000Z,9.78
2022-07-26T03:47:25.000Z,9.44
2022-07-26T03:52:25.000Z,9.48
2022-07-26T03:57:24.000Z,9.59
2022-07-26T04:02:24.000Z,9.59
2022-07-26T04:07:24.000Z,9.48
2022-07-26T04:12:25.000Z,10.27
2022-07-26T04:17:24.000Z,10.41
2022-07-26T04:22:24.000Z,9.52
2022-07-26T04:27:25.000Z,9.4
2022-07-26T04:32:24.000Z,9.43
2022-07-26T04:37:24.000Z,9.22
2022-07-26T04:42:24.000Z,8.63
2022-07-26T04:47:25.000Z,8.63
2022-07-26T04:52:24.000Z,9.08
2022-07-26T04:57:24.000Z,8.96
2022-07-26T05:02:24.000Z,9.29
2022-07-26T05:07:25.000Z,9.05
2022-07-26T05:12:25.000Z,9.24
2022-07-26T05:17:24.000Z,9
2022-07-26T05:22:25.000Z,9.1
2022-07-26T05:27:25.000Z,9.1
2022-07-26T05:32:24.000Z,9.23
2022-07-26T05:37:24.000Z,9.25
2022-07-26T05:42:25.000Z,9.02
2022-07-26T05:47:24.000Z,9.24
2022-07-26T05:52:24.000Z,9.93
2022-07-26T05:57:24.000Z,9.61
2022-07-26T06:02:24.000Z,9.37
2022-07-26T06:07:24.000Z,9.46
2022-07-26T06:12:25.000Z,9.46
2022-07-26T06:17:24.000Z,9.26
2022-07-26T06:27:24.000Z,9.3
2022-07-26T06:37:25.000Z,10.1
2022-07-26T06:42:24.000Z,10.1
2022-07-26T06:47:24.000Z,8.56
2022-07-26T06:52:25.000Z,8.95
2022-07-26T06:57:25.000Z,9.02
2022-07-26T07:02:25.000Z,8.85
2022-07-26T07:07:25.000Z,9.36
2022-07-26T07:12:24.000Z,9.19
2022-07-26T07:17:24.000Z,9.19
2022-07-26T07:22:25.000Z,9.32
2022-07-26T07:27:25.000Z,9.2
2022-07-26T07:32:24.000Z,9.26
2022-07-26T07:37:25.000Z,9.53
2022-07-26T07:42:24.000Z,10.02
2022-07-26T07:47:25.000Z,10.17
2022-07-26T07:52:24.000Z,9.96
2022-07-26T07:57:24.000Z,9.96
2022-07-26T08:02:24.000Z,12.88
2022-07-26T08:07:24.000Z,9.77
2022-07-26T08:12:25.000Z,10.04
2022-07-26T08:17:24.000Z,9.95
2022-07-26T08:22:24.000Z,12.38
2022-07-26T08:27:24.000Z,10.75
2022-07-26T08:32:25.000Z,10.75
2022-07-26T08:37:25.000Z,10.47
2022-07-26T08:42:24.000Z,12.37
2022-07-26T08:47:24.000Z,11.29
2022-07-26T08:52:24.000Z,10.83
2022-07-26T08:57:24.000Z,15.19
2022-07-26T09:02:24.000Z,11.13
2022-07-26T09:07:24.000Z,11.71
2022-07-26T09:12:24.000Z,11.71
2022-07-26T09:22:24.000Z,11.11
2022-07-26T09:27:25.000Z,11.76
2022-07-26T09:32:25.000Z,11.79
2022-07-26T09:37:25.000Z,11.84
2022-07-26T09:42:25.000Z,10.05
2022-07-26T09:47:24.000Z,10.4
2022-07-26T09:52:24.000Z,10.77
2022-07-26T09:57:25.000Z,10.77
2022-07-26T10:02:25.000Z,10.59
2022-07-26T10:07:24.000Z,10.55
2022-07-26T10:12:25.000Z,10.81
2022-07-26T10:17:25.000Z,11.54
2022-07-26T10:22:24.000Z,11.53
2022-07-26T10:27:24.000Z,10.96
2022-07-26T10:32:25.000Z,10.96
2022-07-26T10:37:24.000Z,10.9
2022-07-26T10:42:25.000Z,10.65
2022-07-26T10:47:24.000Z,10.93
2022-07-26T10:52:25.000Z,11.16
2022-07-26T10:57:25.000Z,11.86
2022-07-26T11:02:25.000Z,13.08
2022-07-26T11:07:24.000Z,12.33
2022-07-26T11:12:24.000Z,13.43
2022-07-26T11:17:24.000Z,13.43
2022-07-26T11:22:24.000Z,12.09
2022-07-26T11:27:25.000Z,11.21
2022-07-26T11:32:25.000Z,10.99
2022-07-26T11:37:25.000Z,12.24
2022-07-26T11:42:25.000Z,11.93
2022-07-26T11:47:24.000Z,12.85
2022-07-26T11:52:25.000Z,14.03
2022-07-26T11:57:24.000Z,12.42
2022-07-26T12:12:24.000Z,11.92
2022-07-26T12:17:24.000Z,11.5
2022-07-26T12:22:24.000Z,11.49
2022-07-26T12:27:24.000Z,12.38
2022-07-26T12:32:24.000Z,11.92
2022-07-26T12:37:24.000Z,10.53
2022-07-26T12:52:24.000Z,9.91
2022-07-26T12:57:25.000Z,10.01
2022-07-26T13:02:25.000Z,10.32
2022-07-26T13:07:25.000Z,11.13
2022-07-26T13:12:24.000Z,11
2022-07-26T13:17:25.000Z,11
2022-07-26T13:22:25.000Z,12.22
2022-07-26T13:27:25.000Z,13.33
2022-07-26T13:32:24.000Z,13.74
2022-07-26T13:37:24.000Z,14.55
2022-07-26T13:42:24.000Z,14.38
2022-07-26T13:47:24.000Z,14.2
2022-07-26T13:52:24.000Z,14.48
2022-07-26T13:57:25.000Z,15.66
2022-07-26T14:02:25.000Z,14.85
2022-07-26T14:07:24.000Z,14.85
2022-07-26T14:12:25.000Z,14.82
2022-07-26T14:17:24.000Z,14.55
2022-07-26T14:22:24.000Z,14.36
2022-07-26T14:27:25.000Z,13.83
2022-07-26T14:32:24.000Z,13.29
2022-07-26T14:37:25.000Z,13.29
2022-07-26T14:47:24.000Z,14.13
2022-07-26T14:52:24.000Z,13.28
2022-07-26T14:57:24.000Z,12.83
2022-07-26T15:02:24.000Z,13.97
2022-07-26T15:07:24.000Z,12.9
2022-07-26T15:12:25.000Z,12.67
2022-07-26T15:17:24.000Z,12.82
2022-07-26T15:22:25.000Z,12.82
2022-07-26T15:27:24.000Z,14.02
2022-07-26T15:32:24.000Z,14.6
2022-07-26T15:37:25.000Z,12.52
2022-07-26T15:42:24.000Z,12.45
2022-07-26T15:47:25.000Z,13.18
2022-07-26T15:52:24.000Z,13.75
2022-07-26T15:57:24.000Z,13.57
2022-07-26T16:02:24.000Z,13.41
2022-07-26T16:07:24.000Z,13.14
2022-07-26T16:12:25.000Z,13.14
2022-07-26T16:17:24.000Z,13.13
2022-07-26T16:22:25.000Z,12.94
2022-07-26T16:27:24.000Z,13.08
2022-07-26T16:32:24.000Z,12.68
2022-07-26T16:37:24.000Z,12.71
2022-07-26T16:42:24.000Z,12.49
2022-07-26T16:47:24.000Z,12.57
2022-07-26T16:52:24.000Z,12.57
2022-07-26T16:57:24.000Z,13.13
2022-07-26T17:02:24.000Z,16.56
2022-07-26T17:07:24.000Z,14.4
2022-07-26T17:12:24.000Z,13
2022-07-26T17:17:25.000Z,12.77
2022-07-26T17:22:24.000Z,12.72
2022-07-26T17:27:24.000Z,14.13
2022-07-26T17:32:24.000Z,13.6
2022-07-26T17:37:25.000Z,14.27
2022-07-26T17:42:24.000Z,14.27
2022-07-26T17:47:25.000Z,17.37
2022-07-26T17:52:24.000Z,17.72
2022-07-26T17:57:24.000Z,15.85
2022-07-26T18:02:24.000Z,14.69
2022-07-26T18:07:24.000Z,13.57
2022-07-26T18:12:24.000Z,13.35
2022-07-26T18:17:25.000Z,14.19
2022-07-26T18:22:24.000Z,14.19
2022-07-26T18:27:24.000Z,13.19
2022-07-26T18:32:24.000Z,13.16
2022-07-26T18:42:24.000Z,14.12
2022-07-26T18:52:24.000Z,15.18
2022-07-26T18:57:24.000Z,15.18
2022-07-26T19:02:25.000Z,15.01
2022-07-26T19:07:24.000Z,15.15
2022-07-26T19:12:25.000Z,14.99
2022-07-26T19:17:24.000Z,14.25
2022-07-26T19:22:24.000Z,16.33
2022-07-26T19:27:25.000Z,17.33
2022-07-26T19:32:25.000Z,17.33
2022-07-26T19:37:24.000Z,17.55
2022-07-26T19:42:25.000Z,17.81
2022-07-26T19:47:25.000Z,15.99
2022-07-26T19:52:25.000Z,15.7
2022-07-26T19:57:24.000Z,16.7
2022-07-26T20:02:24.000Z,16.08
2022-07-26T20:07:24.000Z,16.02
2022-07-26T20:12:24.000Z,16.02
2022-07-26T20:17:24.000Z,16.45
2022-07-26T20:27:25.000Z,15.27
2022-07-26T20:32:24.000Z,15.05
2022-07-26T20:37:24.000Z,15.59
2022-07-26T20:42:24.000Z,15.46
2022-07-26T20:47:24.000Z,15.46
2022-07-26T20:52:24.000Z,17.97
2022-07-26T21:02:24.000Z,16.96
2022-07-26T21:07:24.000Z,17.1
2022-07-26T21:12:24.000Z,20.04
2022-07-26T21:17:24.000Z,17.62
2022-07-26T21:22:25.000Z,18.86
2022-07-26T21:27:24.000Z,18.86
2022-07-26T21:32:24.000Z,17.55
2022-07-26T21:37:24.000Z,17.23
2022-07-26T21:42:24.000Z,17.34
2022-07-26T21:47:25.000Z,16.76
2022-07-26T21:52:24.000Z,17.95
2022-07-26T21:57:24.000Z,17.99
2022-07-26T22:02:25.000Z,18.25
2022-07-26T22:07:25.000Z,18.25
2022-07-26T22:12:24.000Z,18.79
2022-07-26T22:17:25.000Z,19.36
2022-07-26T22:22:25.000Z,17.44
2022-07-26T22:27:24.000Z,16.53
2022-07-26T22:32:24.000Z,16.3
2022-07-26T22:42:24.000Z,16.43
2022-07-26T22:47:24.000Z,16.43
2022-07-26T22:52:24.000Z,16.7
2022-07-26T22:57:24.000Z,18.48
2022-07-26T23:02:24.000Z,19.34
2022-07-26T23:07:24.000Z,18.79
2022-07-26T23:12:25.000Z,17.08
2022-07-26T23:17:25.000Z,16.31
2022-07-26T23:22:24.000Z,16.31
2022-07-26T23:27:24.000Z,16.31
2022-07-26T23:32:25.000Z,15.95
2022-07-26T23:37:25.000Z,15.61
2022-07-26T23:47:24.000Z,16.83
2022-07-26T23:52:24.000Z,17.16
2022-07-26T23:57:24.000Z,17.8
